createdAt,value
2022-11-26T12:07:07.209Z,15.18
2022-11-26T12:09:53.391Z,14.55
2022-11-26T12:12:35.703Z,12.55
2022-11-26T12:15:10.021Z,10.93
2022-11-26T12:17:57.158Z,9.70
2022-11-26T12:20:37.179Z,8.08
2022-11-26T12:23:24.325Z,9.55
2022-11-26T12:26:20.938Z,9.18
2022-11-26T12:28:58.066Z,9.75
2022-11-26T12:31:43.064Z,9.53
2022-11-26T12:34:35.258Z,8.93
2022-11-26T12:37:30.537Z,8.20
2022-11-26T12:40:21.268Z,8.80
2022-11-26T12:43:00.123Z,10.08
2022-11-26T12:45:51.868Z,9.43
2022-11-26T12:48:45.599Z,9.35
2022-11-26T12:51:26.307Z,8.58
2022-11-26T12:54:07.140Z,8.65
2022-11-26T12:56:50.392Z,10.80
2022-11-26T12:59:39.607Z,10.23
2022-11-26T13:02:30.161Z,9.23
2022-11-26T13:05:00.159Z,9.30
2022-11-26T13:08:05.101Z,9.55
2022-11-26T13:10:55.571Z,9.93
2022-11-26T13:13:54.819Z,10.18
2022-11-26T13:16:44.330Z,10.90
2022-11-26T13:19:35.914Z,10.60
2022-11-26T13:22:44.431Z,9.35
2022-11-26T13:25:37.196Z,10.28
2022-11-26T13:28:48.304Z,9.75
2022-11-26T13:31:42.006Z,10.53
2022-11-26T13:34:34.621Z,11.20
2022-11-26T13:37:33.568Z,9.40
2022-11-26T13:40:10.971Z,9.60
2022-11-26T13:42:52.482Z,8.78
2022-11-26T13:45:34.056Z,9.38
2022-11-26T13:48:11.240Z,9.83
2022-11-26T13:50:48.021Z,8.88
2022-11-26T13:53:27.001Z,11.25
2022-11-26T13:56:01.695Z,9.58
2022-11-26T13:58:45.467Z,8.40
2022-11-26T14:01:39.516Z,10.98
2022-11-26T14:04:12.335Z,9.33
2022-11-26T14:07:09.577Z,9.53
2022-11-26T14:09:48.175Z,11.20
2022-11-26T14:12:17.989Z,14.07
2022-11-26T14:14:50.423Z,12.18
2022-11-26T14:17:24.839Z,12.63
2022-11-26T14:19:59.482Z,11.35
2022-11-26T14:22:35.828Z,11.65
2022-11-26T14:25:11.228Z,11.90
2022-11-26T14:27:53.471Z,12.65
2022-11-26T14:30:25.445Z,10.88
2022-11-26T14:33:19.255Z,10.93
2022-11-26T14:35:56.532Z,12.88
2022-11-26T14:41:00.695Z,14.13
2022-11-26T14:43:29.544Z,11.80
2022-11-26T14:46:11.174Z,12.07
2022-11-26T14:48:47.267Z,12.18
2022-11-26T14:51:23.175Z,14.58
2022-11-26T14:53:52.708Z,13.35
2022-11-26T14:56:23.753Z,14.10
2022-11-26T14:58:55.304Z,16.15
2022-11-26T15:01:26.639Z,14.80
2022-11-26T15:04:02.431Z,14.33
2022-11-26T15:06:36.992Z,11.10
2022-11-26T15:09:18.909Z,13.60
2022-11-26T15:12:14.275Z,14.10
2022-11-26T15:14:54.485Z,14.65
2022-11-26T15:17:24.484Z,14.23
2022-11-26T15:19:53.677Z,11.60
2022-11-26T15:22:39.181Z,12.23
2022-11-26T15:25:18.607Z,11.40
2022-11-26T15:28:05.237Z,12.47
2022-11-26T15:30:36.908Z,11.90
2022-11-26T15:33:13.037Z,11.83
2022-11-26T15:35:44.046Z,11.78
2022-11-26T15:38:20.271Z,11.10
2022-11-26T15:41:03.740Z,12.13
2022-11-26T15:43:45.702Z,11.85
2022-11-26T15:46:27.792Z,12.63
2022-11-26T15:49:00.561Z,13.65
2022-11-26T15:51:40.973Z,12.73
2022-11-26T15:54:49.540Z,11.60
2022-11-26T15:57:32.708Z,12.28
2022-11-26T16:00:06.381Z,11.33
2022-11-26T16:02:35.974Z,12.13
2022-11-26T16:05:07.673Z,12.10
2022-11-26T16:07:36.281Z,11.40
2022-11-26T16:10:20.055Z,13.45
2022-11-26T16:13:13.501Z,11.48
2022-11-26T16:15:53.987Z,11.48
2022-11-26T16:18:27.991Z,12.80
2022-11-26T16:21:16.947Z,12.28
2022-11-26T16:23:53.070Z,13.20
2022-11-26T16:26:22.919Z,16.12
2022-11-26T16:28:52.410Z,21.25
2022-11-26T16:31:21.481Z,19.30
2022-11-26T16:33:50.717Z,15.60
2022-11-26T16:36:23.404Z,14.35
2022-11-26T16:38:52.286Z,14.28
2022-11-26T16:41:22.222Z,14.68
2022-11-26T16:43:50.691Z,12.55
2022-11-26T16:46:23.784Z,12.10
2022-11-26T16:48:52.383Z,13.30
2022-11-26T16:51:21.292Z,12.85
2022-11-26T16:53:51.937Z,13.43
2022-11-26T16:56:33.090Z,15.10
2022-11-26T16:59:02.515Z,14.15
2022-11-26T17:01:31.093Z,13.25
2022-11-26T17:03:59.639Z,12.30
2022-11-26T17:06:31.628Z,12.13
2022-11-26T17:09:00.178Z,13.65
2022-11-26T17:11:29.226Z,12.75
2022-11-26T17:13:58.035Z,11.35
2022-11-26T17:16:27.262Z,11.95
2022-11-26T17:18:56.208Z,12.15
2022-11-26T17:21:25.696Z,10.32
2022-11-26T17:23:54.571Z,10.60
2022-11-26T17:26:24.186Z,10.85
2022-11-26T17:28:52.922Z,11.63
2022-11-26T17:31:21.624Z,12.25
2022-11-26T17:33:50.891Z,11.80
2022-11-26T17:36:21.433Z,12.37
2022-11-26T17:38:50.101Z,13.05
2022-11-26T17:41:20.514Z,10.98
2022-11-26T17:43:50.007Z,13.13
2022-11-26T17:46:20.802Z,11.43
2022-11-26T17:48:49.517Z,11.85
2022-11-26T17:51:19.713Z,11.70
2022-11-26T17:53:48.642Z,12.05
2022-11-26T17:56:21.360Z,12.98
2022-11-26T17:58:50.744Z,12.25
2022-11-26T18:01:20.854Z,12.13
2022-11-26T18:03:51.759Z,13.05
2022-11-26T18:06:42.082Z,15.95
2022-11-26T18:09:14.572Z,13.83
2022-11-26T18:11:51.323Z,14.83
2022-11-26T18:14:22.540Z,12.88
2022-11-26T18:16:51.616Z,13.48
2022-11-26T18:19:24.099Z,14.15
2022-11-26T18:21:53.650Z,13.75
2022-11-26T18:24:23.490Z,14.40
2022-11-26T18:26:54.802Z,14.53
2022-11-26T18:29:25.196Z,14.00
2022-11-26T18:31:55.210Z,12.23
2022-11-26T18:34:25.374Z,12.70
2022-11-26T18:36:55.724Z,11.35
2022-11-26T18:39:24.470Z,11.20
2022-11-26T18:42:00.708Z,11.68
2022-11-26T18:44:24.931Z,10.32
2022-11-26T18:46:54.168Z,10.90
2022-11-26T18:49:23.142Z,12.65
2022-11-26T18:51:53.260Z,13.10
2022-11-26T18:54:23.174Z,12.50
2022-11-26T18:56:54.233Z,13.83
2022-11-26T18:59:23.414Z,10.93
2022-11-26T19:01:53.405Z,10.82
2022-11-26T19:04:23.595Z,12.35
2022-11-26T19:06:53.026Z,14.43
2022-11-26T19:09:22.563Z,11.73
2022-11-26T19:11:54.937Z,11.18
2022-11-26T19:14:24.072Z,9.83
2022-11-26T19:16:53.235Z,11.40
2022-11-26T19:19:23.040Z,12.82
2022-11-26T19:21:55.514Z,10.08
2022-11-26T19:24:22.690Z,10.50
2022-11-26T19:26:51.273Z,10.13
2022-11-26T19:29:20.986Z,9.10
2022-11-26T19:31:50.104Z,9.53
2022-11-26T19:34:19.963Z,11.05
2022-11-26T19:36:49.223Z,9.65
2022-11-26T19:39:19.689Z,9.90
2022-11-26T19:41:48.767Z,9.85
2022-11-26T19:44:18.775Z,10.58
2022-11-26T19:46:48.488Z,10.72
2022-11-26T19:49:17.395Z,11.30
2022-11-26T19:51:46.340Z,10.08
2022-11-26T19:54:15.118Z,9.80
2022-11-26T19:56:45.988Z,9.65
2022-11-26T19:59:16.006Z,9.10
2022-11-26T20:01:45.090Z,10.10
2022-11-26T20:04:17.771Z,9.90
2022-11-26T20:06:47.151Z,10.40
2022-11-26T20:09:16.422Z,10.55
2022-11-26T20:11:45.827Z,10.38
2022-11-26T20:14:14.454Z,8.98
2022-11-26T20:16:44.410Z,8.80
2022-11-26T20:19:13.193Z,9.23
2022-11-26T20:21:41.826Z,9.58
2022-11-26T20:24:16.634Z,8.48
2022-11-26T20:26:48.024Z,8.20
2022-11-26T20:29:18.084Z,7.78
2022-11-26T20:31:51.171Z,8.53
2022-11-26T20:34:23.750Z,8.68
2022-11-26T20:36:52.911Z,10.35
2022-11-26T20:39:22.868Z,8.53
2022-11-26T20:41:51.660Z,9.08
2022-11-26T20:44:20.304Z,10.15
2022-11-26T20:46:49.335Z,9.83
2022-11-26T20:49:19.515Z,10.25
2022-11-26T20:51:48.374Z,10.98
2022-11-26T20:54:17.019Z,8.88
2022-11-26T20:56:46.561Z,9.60
2022-11-26T20:59:16.825Z,9.70
2022-11-26T21:01:45.964Z,9.50
2022-11-26T21:04:14.861Z,9.53
2022-11-26T21:06:43.865Z,9.48
2022-11-26T21:09:13.280Z,8.53
2022-11-26T21:11:43.173Z,9.65
2022-11-26T21:14:15.210Z,10.20
2022-11-26T21:16:44.610Z,10.63
2022-11-26T21:19:13.523Z,10.15
2022-11-26T21:21:42.275Z,9.38
2022-11-26T21:24:12.044Z,8.25
2022-11-26T21:26:40.676Z,7.90
2022-11-26T21:29:09.269Z,8.98
2022-11-26T21:31:38.152Z,9.30
2022-11-26T21:34:07.553Z,8.10
2022-11-26T21:36:37.072Z,8.48
2022-11-26T21:39:06.350Z,8.08
2022-11-26T21:41:35.648Z,7.33
2022-11-26T21:44:05.028Z,7.42
2022-11-26T21:46:38.670Z,7.85
2022-11-26T21:49:07.596Z,7.62
2022-11-26T21:51:36.641Z,7.97
2022-11-26T21:54:05.731Z,8.95
2022-11-26T21:56:34.393Z,7.47
2022-11-26T21:59:03.249Z,7.45
2022-11-26T22:01:36.951Z,7.30
2022-11-26T22:04:14.634Z,7.08
2022-11-26T22:06:46.879Z,7.30
2022-11-26T22:09:17.018Z,7.62
2022-11-26T22:11:46.252Z,7.65
2022-11-26T22:14:16.149Z,6.83
2022-11-26T22:16:53.907Z,7.67
2022-11-26T22:19:23.210Z,6.92
2022-11-26T22:21:52.041Z,6.85
2022-11-26T22:24:20.958Z,8.43
2022-11-26T22:26:50.442Z,8.30
2022-11-26T22:29:19.892Z,8.33
2022-11-26T22:31:50.261Z,7.80
2022-11-26T22:34:24.402Z,8.10
2022-11-26T22:36:53.399Z,7.12
2022-11-26T22:39:23.369Z,9.00
2022-11-26T22:41:53.107Z,7.83
2022-11-26T22:44:22.206Z,6.90
2022-11-26T22:46:50.954Z,8.88
2022-11-26T22:49:21.850Z,8.25
2022-11-26T22:51:50.523Z,6.25
2022-11-26T22:54:21.056Z,7.42
2022-11-26T22:56:50.976Z,7.90
2022-11-26T22:59:20.624Z,7.30
2022-11-26T23:01:53.609Z,7.05
2022-11-26T23:04:22.304Z,7.25
2022-11-26T23:06:52.229Z,6.90
2022-11-26T23:09:21.288Z,5.70
2022-11-26T23:11:51.367Z,6.10
2022-11-26T23:14:19.871Z,7.20
2022-11-26T23:16:48.659Z,6.35
2022-11-26T23:19:18.556Z,6.17
2022-11-26T23:21:47.588Z,7.45
2022-11-26T23:24:16.229Z,8.05
2022-11-26T23:26:45.027Z,7.55
2022-11-26T23:29:13.831Z,6.40
2022-11-26T23:31:43.846Z,7.65
2022-11-26T23:34:12.720Z,6.80
2022-11-26T23:36:42.644Z,5.87
2022-11-26T23:39:12.003Z,5.62
2022-11-26T23:41:41.044Z,5.90
2022-11-26T23:44:10.322Z,5.35
2022-11-26T23:46:40.396Z,4.83
2022-11-26T23:49:09.420Z,4.87
2022-11-26T23:51:39.183Z,4.58
2022-11-26T23:54:09.169Z,5.12
2022-11-26T23:56:38.468Z,5.45
2022-11-26T23:59:07.899Z,4.78
